createdAt,value
2019-01-21T06:03:43.225Z,95.68
2019-01-21T06:09:01.402Z,96.42
2019-01-21T06:12:05.148Z,96.75
2019-01-21T06:13:04.261Z,96.53
2019-01-21T06:14:04.460Z,96.64
2019-01-21T06:15:04.279Z,96.32
2019-01-21T06:45:52.831Z,97.71
2019-01-21T06:46:53.768Z,97.17
2019-01-21T06:47:49.280Z,96.96
2019-01-21T06:48:49.276Z,96.81
2019-01-21T06:49:49.290Z,97.24
2019-01-21T06:50:49.245Z,97.39
2019-01-21T06:51:49.269Z,96.64
2019-01-21T06:52:49.215Z,96.32
2019-01-21T06:53:49.263Z,96.21
2019-01-21T06:54:49.197Z,95.89
2019-01-21T06:55:49.224Z,96.32
2019-01-21T06:56:49.188Z,96.64
2019-01-21T06:57:49.181Z,96.53
2019-01-21T06:58:49.175Z,96.64
2019-01-21T06:59:49.179Z,96.11
2019-01-21T07:00:49.137Z,96.64
2019-01-21T07:01:49.133Z,96.42
2019-01-21T07:02:49.130Z,96.85
2019-01-21T07:03:49.348Z,96.53
2019-01-21T07:04:49.100Z,97.60
2019-01-21T07:05:49.123Z,96.85
2019-01-21T07:06:49.091Z,96.85
2019-01-21T07:07:49.062Z,96.64
2019-01-21T07:08:49.139Z,96.85
2019-01-21T07:09:49.047Z,96.85
2019-01-21T07:10:49.101Z,96.64
2019-01-21T07:11:49.018Z,96.96
2019-01-21T07:12:49.026Z,96.21
2019-01-21T07:13:49.004Z,96.53
2019-01-21T07:14:49.032Z,96.00
2019-01-21T07:15:48.983Z,96.42
2019-01-21T07:16:49.015Z,96.96
2019-01-21T07:17:48.963Z,97.28
2019-01-21T07:18:48.957Z,97.28
2019-01-21T07:19:48.943Z,96.75
2019-01-21T07:20:48.961Z,97.34
2019-01-21T07:21:48.922Z,97.39
2019-01-21T07:22:48.930Z,97.45
2019-01-21T07:23:48.898Z,97.39
2019-01-21T07:24:48.906Z,97.49
2019-01-21T07:25:48.897Z,96.96
2019-01-21T07:26:48.890Z,97.06
2019-01-21T07:27:48.857Z,97.49
2019-01-21T07:28:48.850Z,97.17
2019-01-21T07:29:48.849Z,97.06
2019-01-21T07:30:48.826Z,97.28
2019-01-21T07:31:48.830Z,97.28
2019-01-21T07:32:48.805Z,97.28
2019-01-21T07:33:48.833Z,97.17
2019-01-21T07:34:48.783Z,97.28
2019-01-21T07:35:48.852Z,97.28
2019-01-21T07:36:48.770Z,97.28
2019-01-21T07:37:48.763Z,96.85
2019-01-21T07:38:48.745Z,96.85
2019-01-21T07:39:48.762Z,97.39
2019-01-21T07:40:48.719Z,97.06
2019-01-21T07:41:48.727Z,97.39
2019-01-21T07:42:48.699Z,96.92
2019-01-21T07:43:48.697Z,97.17
2019-01-21T07:44:48.683Z,97.24
2019-01-21T07:45:48.697Z,97.28
2019-01-21T07:46:48.658Z,97.24
2019-01-21T07:47:48.655Z,96.70
2019-01-21T07:48:48.653Z,97.02
2019-01-21T07:49:48.636Z,97.45
2019-01-21T07:50:48.648Z,97.24
2019-01-21T07:51:48.624Z,97.13
2019-01-21T07:52:48.600Z,97.02
2019-01-21T07:53:48.587Z,97.24
2019-01-21T07:54:48.615Z,97.55
2019-01-21T07:55:48.585Z,97.66
2019-01-21T07:56:48.573Z,97.71
2019-01-21T07:57:48.544Z,97.77
2019-01-21T07:58:48.545Z,98.41
2019-01-21T07:59:48.522Z,98.25
2019-01-21T08:00:48.532Z,98.41
2019-01-21T08:01:48.528Z,98.52
2019-01-21T08:02:48.496Z,97.66
2019-01-21T08:03:48.491Z,97.55
2019-01-21T08:04:48.472Z,97.55
2019-01-21T08:05:48.473Z,97.02
2019-01-21T08:06:48.519Z,97.24
2019-01-21T08:07:48.444Z,97.24
2019-01-21T08:08:48.433Z,97.24
2019-01-21T08:09:48.430Z,96.98
2019-01-21T08:10:48.412Z,97.34
2019-01-21T08:11:48.423Z,97.51
2019-01-21T08:12:48.571Z,97.24
2019-01-21T08:13:48.402Z,97.08
2019-01-21T08:14:48.375Z,96.98
2019-01-21T08:15:48.361Z,97.19
2019-01-21T08:16:48.354Z,97.19
2019-01-21T08:17:48.358Z,97.51
2019-01-21T08:18:48.355Z,97.19
2019-01-21T08:19:48.325Z,97.08
2019-01-21T08:20:48.310Z,97.36
2019-01-21T08:21:48.300Z,96.94
2019-01-21T08:22:48.314Z,97.04
2019-01-21T08:23:48.302Z,97.11
2019-01-21T08:24:48.302Z,97.25
2019-01-21T08:25:48.271Z,96.83
2019-01-21T08:26:48.248Z,97.47
2019-01-21T08:27:48.239Z,97.00
2019-01-21T08:28:48.228Z,97.21
2019-01-21T08:29:48.245Z,97.21
2019-01-21T08:30:48.253Z,97.21
2019-01-21T08:31:48.198Z,97.42
2019-01-21T08:32:48.184Z,96.85
2019-01-21T08:33:48.204Z,96.95
2019-01-21T08:34:48.174Z,97.49
2019-01-21T08:35:48.158Z,97.49
2019-01-21T08:36:48.172Z,97.49
2019-01-21T08:37:48.137Z,97.66
2019-01-21T08:38:48.120Z,97.97
2019-01-21T08:39:48.752Z,98.19
2019-01-21T08:40:48.094Z,97.50
2019-01-21T08:41:48.097Z,97.50
2019-01-21T08:42:48.121Z,97.40
2019-01-21T08:43:48.080Z,97.78
2019-01-21T08:44:48.112Z,98.10
2019-01-21T08:45:48.052Z,97.99
2019-01-21T08:46:48.037Z,98.52
2019-01-21T08:47:48.068Z,98.27
2019-01-21T08:48:48.037Z,97.85
2019-01-21T08:49:48.011Z,97.91
2019-01-21T08:50:48.068Z,97.91
2019-01-21T08:51:47.988Z,97.91
2019-01-21T08:52:47.977Z,97.91
2019-01-21T08:53:47.974Z,97.91
2019-01-21T08:54:47.966Z,97.65
2019-01-21T08:55:47.955Z,97.75
2019-01-21T08:56:47.958Z,97.61
2019-01-21T08:57:47.920Z,97.61
2019-01-21T08:58:47.915Z,97.71
2019-01-21T08:59:47.942Z,97.88
2019-01-21T09:00:47.889Z,97.77
2019-01-21T09:01:47.881Z,97.67
2019-01-21T09:02:47.896Z,97.73
2019-01-21T09:03:47.864Z,97.73
2019-01-21T09:04:47.850Z,97.41
2019-01-21T09:05:47.861Z,97.63
2019-01-21T09:06:47.821Z,97.69
2019-01-21T09:07:47.852Z,97.37
2019-01-21T09:08:47.836Z,97.64
2019-01-21T09:09:47.796Z,97.33
2019-01-21T09:10:47.784Z,97.49
2019-01-21T09:11:47.814Z,97.22
2019-01-21T09:12:47.763Z,97.75
2019-01-21T09:13:47.773Z,96.22
2019-01-21T09:14:47.767Z,96.54
2019-01-21T09:15:47.733Z,96.64
2019-01-21T09:16:47.733Z,96.44
2019-01-21T09:17:47.743Z,95.97
2019-01-21T09:18:47.727Z,95.86
2019-01-21T09:19:47.688Z,96.50
2019-01-21T09:20:47.672Z,95.76
2019-01-21T09:21:47.665Z,94.97
2019-01-21T09:22:47.691Z,94.23
2019-01-21T09:23:47.683Z,94.34
2019-01-21T09:24:47.628Z,94.87
2019-01-21T09:25:47.633Z,94.93
2019-01-21T09:26:47.620Z,95.82
2019-01-21T09:27:47.604Z,94.40
2019-01-21T09:28:47.591Z,93.66
2019-01-21T09:29:47.624Z,93.24
2019-01-21T09:30:47.599Z,93.24
2019-01-21T09:31:47.559Z,92.39
2019-01-21T09:32:47.542Z,92.39
2019-01-21T09:33:47.534Z,92.18
2019-01-21T09:34:47.527Z,92.35
2019-01-21T09:35:47.533Z,92.24
2019-01-21T09:36:47.521Z,92.35
2019-01-21T09:37:47.505Z,92.35
2019-01-21T09:38:47.488Z,92.83
2019-01-21T09:39:47.476Z,92.10
2019-01-21T09:40:47.491Z,92.83
2019-01-21T09:41:47.448Z,93.37
2019-01-21T09:42:47.456Z,92.41
2019-01-21T09:43:47.432Z,92.41
2019-01-21T09:44:47.420Z,92.41
2019-01-21T09:45:47.413Z,91.78
2019-01-21T09:46:47.447Z,91.78
2019-01-21T09:47:47.392Z,91.14
2019-01-21T09:48:47.379Z,89.56
2019-01-21T09:49:47.418Z,90.09
2019-01-21T09:50:47.386Z,90.09
2019-01-21T09:51:47.357Z,90.58
2019-01-21T09:52:47.916Z,91.31
2019-01-21T09:53:47.323Z,90.89
2019-01-21T09:54:47.318Z,90.58
2019-01-21T09:55:47.324Z,89.52
2019-01-21T09:56:47.331Z,89.94
2019-01-21T09:57:47.288Z,89.84
2019-01-21T09:58:47.270Z,90.05
2019-01-21T09:59:47.261Z,89.84
2019-01-21T10:00:47.251Z,90.16
2019-01-21T10:01:47.261Z,89.84
2019-01-21T10:02:47.256Z,90.16
2019-01-21T10:03:47.238Z,90.16
2019-01-21T10:04:47.208Z,90.11
2019-01-21T10:05:47.213Z,89.79
2019-01-21T10:06:47.211Z,89.06
2019-01-21T10:07:47.174Z,88.32
2019-01-21T10:08:47.209Z,87.54
2019-01-21T10:09:47.158Z,88.18
2019-01-21T10:10:47.144Z,87.65
2019-01-21T10:11:47.180Z,87.86
2019-01-21T10:12:47.162Z,87.86
2019-01-21T10:13:47.114Z,87.23
2019-01-21T10:14:47.146Z,87.86
2019-01-21T10:15:47.123Z,86.91
2019-01-21T10:16:47.086Z,87.54
2019-01-21T10:17:47.073Z,87.50
2019-01-21T10:18:47.082Z,87.50
2019-01-21T10:19:50.453Z,87.61
2019-01-21T10:20:47.049Z,87.08
2019-01-21T10:21:47.070Z,86.98
2019-01-21T10:22:47.067Z,86.87
2019-01-21T10:23:47.011Z,86.45
2019-01-21T10:24:47.006Z,86.30
2019-01-21T10:25:46.993Z,86.45
2019-01-21T10:26:47.009Z,86.41
2019-01-21T10:27:47.010Z,86.30
2019-01-21T10:28:46.981Z,86.72
2019-01-21T10:29:46.980Z,86.41
2019-01-21T10:30:46.950Z,86.30
2019-01-21T10:31:46.935Z,86.52
2019-01-21T10:32:46.966Z,86.37
2019-01-21T10:33:46.911Z,86.69
2019-01-21T10:34:46.892Z,86.37
2019-01-21T10:35:46.984Z,86.05
2019-01-21T10:36:46.886Z,85.85
2019-01-21T10:37:46.867Z,85.95
2019-01-21T10:38:46.861Z,85.42
2019-01-21T10:39:46.847Z,84.86
2019-01-21T10:40:46.838Z,85.31
2019-01-21T10:41:46.859Z,85.07
2019-01-21T10:42:46.822Z,84.65
2019-01-21T10:43:46.810Z,85.11
2019-01-21T10:44:46.797Z,84.86
2019-01-21T10:45:46.809Z,84.71
2019-01-21T10:46:46.779Z,84.82
2019-01-21T10:47:46.859Z,84.08
2019-01-21T10:48:46.756Z,83.83
2019-01-21T10:49:46.743Z,83.41
2019-01-21T10:50:46.766Z,83.41
2019-01-21T10:51:46.719Z,83.20
2019-01-21T10:52:46.794Z,83.20
2019-01-21T10:53:46.703Z,83.20
2019-01-21T10:54:46.686Z,82.99
2019-01-21T10:55:46.722Z,82.46
2019-01-21T10:56:47.473Z,82.75
2019-01-21T10:57:46.682Z,81.80
2019-01-21T10:58:46.646Z,81.59
2019-01-21T10:59:46.692Z,81.16
2019-01-21T11:00:46.642Z,80.64
2019-01-21T11:01:46.611Z,80.29
2019-01-21T11:02:46.637Z,80.82
2019-01-21T11:03:46.672Z,81.65
2019-01-21T11:04:46.581Z,81.65
2019-01-21T11:05:46.573Z,81.13
2019-01-21T11:06:46.567Z,81.24
2019-01-21T11:07:46.603Z,81.24
2019-01-21T11:08:46.557Z,81.34
2019-01-21T11:09:46.535Z,79.10
2019-01-21T11:10:46.510Z,78.57
2019-01-21T11:11:53.824Z,78.78
2019-01-21T11:12:47.488Z,79.27
2019-01-21T11:13:46.513Z,77.42
2019-01-21T11:14:46.556Z,77.07
2019-01-21T11:15:46.460Z,77.03
2019-01-21T11:16:46.480Z,76.65
2019-01-21T11:17:46.442Z,77.59
2019-01-21T11:18:46.454Z,77.66
2019-01-21T11:19:46.436Z,77.66
2019-01-21T11:20:46.443Z,78.01
2019-01-21T11:21:46.400Z,76.51
2019-01-21T11:22:46.390Z,76.09
2019-01-21T11:23:46.375Z,76.09
2019-01-21T11:24:46.410Z,75.88
2019-01-21T11:25:46.354Z,75.67
2019-01-21T11:26:46.352Z,76.16
2019-01-21T11:27:46.327Z,76.29
2019-01-21T11:28:46.404Z,76.47
2019-01-21T11:29:46.331Z,76.68
2019-01-21T11:30:46.346Z,77.52
2019-01-21T11:31:46.300Z,77.62
2019-01-21T11:32:46.304Z,77.62
2019-01-21T11:33:46.269Z,77.31
2019-01-21T11:34:46.260Z,77.73
2019-01-21T11:35:46.275Z,76.57
2019-01-21T11:36:46.292Z,76.16
2019-01-21T11:37:46.232Z,76.37
2019-01-21T11:38:46.216Z,76.96
2019-01-21T11:39:46.237Z,77.31
2019-01-21T11:40:46.285Z,77.73
2019-01-21T11:41:46.184Z,78.47
2019-01-21T11:42:46.173Z,78.05
2019-01-21T11:43:46.161Z,77.84
2019-01-21T11:44:46.166Z,78.05
2019-01-21T11:45:46.141Z,79.30
2019-01-21T11:46:46.144Z,79.41
2019-01-21T11:47:46.116Z,79.72
2019-01-21T11:48:46.105Z,78.47
2019-01-21T11:49:46.093Z,77.42
2019-01-21T11:50:46.084Z,76.75
2019-01-21T11:51:46.099Z,77.07
2019-01-21T11:52:46.068Z,78.01
2019-01-21T11:53:46.082Z,77.28
2019-01-21T11:54:46.052Z,77.48
2019-01-21T11:55:46.028Z,77.70
2019-01-21T11:56:46.051Z,76.75
2019-01-21T11:57:46.061Z,76.86
2019-01-21T11:58:46.008Z,77.48
2019-01-21T11:59:45.997Z,77.70
2019-01-21T12:00:45.977Z,76.43
2019-01-21T12:01:45.987Z,77.24
2019-01-21T12:02:45.960Z,75.67
2019-01-21T12:03:45.964Z,75.78
2019-01-21T12:04:45.939Z,75.56
2019-01-21T12:05:45.973Z,75.63
2019-01-21T12:06:45.921Z,76.40
2019-01-21T12:07:45.942Z,75.53
2019-01-21T12:08:45.889Z,75.84
2019-01-21T12:09:45.889Z,76.37
2019-01-21T12:10:45.956Z,76.68
2019-01-21T12:11:46.026Z,76.06
2019-01-21T12:12:45.851Z,74.80
2019-01-21T12:13:45.872Z,74.58
2019-01-21T12:14:45.832Z,74.69
2019-01-21T12:15:45.969Z,74.76
2019-01-21T12:16:45.815Z,74.55
2019-01-21T12:17:45.793Z,74.76
2019-01-21T12:18:45.816Z,75.60
2019-01-21T12:19:45.869Z,75.63
2019-01-21T12:20:45.767Z,75.53
2019-01-21T12:21:45.754Z,75.32
2019-01-21T12:22:45.749Z,75.60
2019-01-21T12:23:45.734Z,76.16
2019-01-21T12:24:45.747Z,75.74
2019-01-21T12:25:45.806Z,75.32
2019-01-21T12:26:45.711Z,75.81
2019-01-21T12:27:45.744Z,76.33
2019-01-21T12:28:45.689Z,75.70
2019-01-21T12:29:45.701Z,75.84
2019-01-21T12:30:45.659Z,75.70
2019-01-21T12:31:45.679Z,75.81
2019-01-21T12:32:45.649Z,74.87
2019-01-21T12:33:45.662Z,74.24
2019-01-21T12:34:45.625Z,73.99
2019-01-21T12:35:45.637Z,73.89
2019-01-21T12:36:45.600Z,73.99
2019-01-21T12:37:45.613Z,75.15
2019-01-21T12:38:45.577Z,74.52
2019-01-21T12:39:45.596Z,74.62
2019-01-21T12:40:45.844Z,73.89
2019-01-21T12:41:59.219Z,73.79
2019-01-21T12:42:45.985Z,73.58
2019-01-21T12:43:46.378Z,72.50
2019-01-21T12:44:45.561Z,73.33
2019-01-21T12:45:45.492Z,73.23
2019-01-21T12:46:45.496Z,73.33
2019-01-21T12:47:45.487Z,73.23
2019-01-21T12:48:45.480Z,73.13
2019-01-21T12:49:45.476Z,73.23
2019-01-21T12:50:45.443Z,72.81
2019-01-21T12:51:46.318Z,73.54
2019-01-21T12:52:45.420Z,73.09
2019-01-21T12:53:45.417Z,72.99
2019-01-21T13:25:10.211Z,72.30
2019-01-21T13:26:09.855Z,72.40
2019-01-21T13:27:09.823Z,72.33
2019-01-21T13:28:09.783Z,72.64
2019-01-21T13:29:09.921Z,71.91
2019-01-21T13:30:09.619Z,71.67
2019-01-21T13:31:09.605Z,71.59
2019-01-21T13:32:09.627Z,71.70
2019-01-21T13:33:18.376Z,71.70
2019-01-21T13:34:09.682Z,71.70
2019-01-21T13:35:09.888Z,72.08
2019-01-21T13:36:09.652Z,71.56
2019-01-21T13:37:09.602Z,73.02
2019-01-21T13:38:09.519Z,71.77
2019-01-21T13:39:09.551Z,71.98
2019-01-21T13:40:09.561Z,71.88
2019-01-21T13:41:09.484Z,71.14
2019-01-21T13:42:09.500Z,70.94
2019-01-21T13:43:09.532Z,71.14
2019-01-21T13:44:09.454Z,71.88
2019-01-21T13:46:26.648Z,72.92
2019-01-21T13:47:26.534Z,72.92
2019-01-21T13:48:26.254Z,73.79
2019-01-21T13:50:44.507Z,72.33
2019-01-21T13:51:43.095Z,72.75
2019-01-21T13:52:43.183Z,72.22
2019-01-21T13:53:43.099Z,72.43
2019-01-21T13:56:00.265Z,71.04
2019-01-21T13:56:59.772Z,71.25
2019-01-21T13:57:59.714Z,71.77
2019-01-21T13:58:59.777Z,70.73
2019-01-21T13:59:59.648Z,70.73
2019-01-21T14:00:59.674Z,70.94
2019-01-21T14:01:59.623Z,70.52
2019-01-21T14:06:30.556Z,71.67
2019-01-21T14:07:30.449Z,70.31
2019-01-21T14:08:30.495Z,70.20
2019-01-21T14:09:39.359Z,70.62
2019-01-21T14:10:30.492Z,71.25
2019-01-21T14:11:30.442Z,70.52
2019-01-21T14:12:30.724Z,71.14
2019-01-21T14:13:30.440Z,71.56
2019-01-21T14:14:30.359Z,71.04
2019-01-21T14:15:30.328Z,70.10
2019-01-21T14:19:07.217Z,70.41
2019-01-21T14:20:07.134Z,70.31
2019-01-21T14:21:07.047Z,70.10
2019-01-21T14:22:06.706Z,70.10
2019-01-21T14:23:06.615Z,70.52
2019-01-21T14:24:06.666Z,70.62
2019-01-21T14:25:06.652Z,70.52
2019-01-21T14:26:06.587Z,71.25
2019-01-21T14:27:06.578Z,70.31
2019-01-21T14:28:06.701Z,70.62
2019-01-21T14:29:06.557Z,70.70
2019-01-21T14:30:06.545Z,70.41
2019-01-21T14:31:06.560Z,70.31
2019-01-21T14:32:06.571Z,70.31
2019-01-21T14:33:06.515Z,70.41
2019-01-21T14:34:06.534Z,70.41
2019-01-21T14:35:06.537Z,70.52
2019-01-21T14:36:06.512Z,70.20
2019-01-21T14:37:06.550Z,70.94
2019-01-21T14:38:06.554Z,70.20
2019-01-21T14:39:06.510Z,71.36
2019-01-21T14:40:06.530Z,70.73
2019-01-21T14:41:06.530Z,71.04
2019-01-21T14:42:06.463Z,71.77
2019-01-21T14:43:08.595Z,71.14
2019-01-21T14:44:06.451Z,71.04
2019-01-21T14:45:06.427Z,71.46
2019-01-21T14:46:06.499Z,71.14
2019-01-21T14:47:06.416Z,71.08
2019-01-21T14:48:06.550Z,70.00
2019-01-21T14:49:06.485Z,70.31
2019-01-21T14:50:06.399Z,70.31
2019-01-21T14:51:06.371Z,70.41
2019-01-21T14:52:06.323Z,70.94
2019-01-21T14:53:06.357Z,70.94
2019-01-21T14:54:06.292Z,71.04
2019-01-21T14:55:06.554Z,71.39
2019-01-21T15:10:11.440Z,72.99
2019-01-21T15:11:15.658Z,72.78
2019-01-21T15:12:11.925Z,72.99
2019-01-21T15:13:10.894Z,72.36
2019-01-21T15:14:11.602Z,72.47
2019-01-21T15:21:38.742Z,72.67
2019-01-21T15:22:50.376Z,73.09
2019-01-21T15:29:17.388Z,73.86
2019-01-21T15:30:17.070Z,73.96
2019-01-21T15:31:16.945Z,74.31
2019-01-21T15:32:19.862Z,74.62
2019-01-21T15:33:25.227Z,74.49
2019-01-21T15:34:17.132Z,74.52
2019-01-21T15:35:20.679Z,74.84
2019-01-21T15:36:17.554Z,74.62
2019-01-21T15:38:46.715Z,74.76
2019-01-21T15:39:57.567Z,75.18
2019-01-21T15:40:45.961Z,75.29
2019-01-21T15:41:45.696Z,75.70
2019-01-21T15:42:46.287Z,75.60
2019-01-21T15:43:45.455Z,75.92
2019-01-21T15:44:45.377Z,75.95
2019-01-21T15:45:50.138Z,75.53
2019-01-21T15:46:46.259Z,75.43
2019-01-21T15:47:45.243Z,76.16
2019-01-21T15:48:45.165Z,75.98
2019-01-21T15:49:45.218Z,75.74
2019-01-21T15:50:45.149Z,75.88
2019-01-21T15:51:45.114Z,76.40
2019-01-21T15:52:45.106Z,76.19
2019-01-21T15:53:45.140Z,77.03
2019-01-21T15:54:45.071Z,77.07
2019-01-21T15:55:45.090Z,77.48
2019-01-21T15:56:45.068Z,77.48
2019-01-21T15:57:45.060Z,76.86
2019-01-21T15:58:45.065Z,77.70
2019-01-21T15:59:45.037Z,77.59
2019-01-21T16:00:45.007Z,77.80
2019-01-21T16:01:45.013Z,77.91
2019-01-21T16:02:45.016Z,77.84
2019-01-21T16:07:06.049Z,77.84
2019-01-21T16:08:06.381Z,78.67
2019-01-21T16:09:05.625Z,79.44
2019-01-21T16:10:08.398Z,79.34
2019-01-21T16:33:09.397Z,81.76
2019-01-21T16:50:44.118Z,83.10
2019-01-21T16:51:43.538Z,83.03
2019-01-21T16:57:01.683Z,83.98
2019-01-21T17:08:06.666Z,84.54
2019-01-21T17:23:27.722Z,85.31
2019-01-21T17:24:27.328Z,85.42
2019-01-21T17:25:27.573Z,85.31
2019-01-21T17:26:27.305Z,85.11
2019-01-21T17:27:27.231Z,85.36
2019-01-21T17:28:27.171Z,86.30
2019-01-21T17:29:27.801Z,85.99
2019-01-21T17:31:49.508Z,85.88
2019-01-21T17:32:49.378Z,85.67
2019-01-21T17:33:49.027Z,86.10
2019-01-21T17:34:49.208Z,86.41
2019-01-21T17:35:49.044Z,86.55
2019-01-21T17:36:49.107Z,86.10
2019-01-21T17:37:48.992Z,86.41
2019-01-21T17:38:48.858Z,86.30
2019-01-21T17:39:48.857Z,86.55
2019-01-21T17:40:48.903Z,86.13
2019-01-21T18:03:02.882Z,87.86
2019-01-21T18:04:02.218Z,87.76
2019-01-21T18:05:03.517Z,87.44
2019-01-21T18:06:02.746Z,88.11
2019-01-21T18:07:01.991Z,88.28
2019-01-21T18:08:02.069Z,88.07
2019-01-21T18:09:02.207Z,88.21
2019-01-21T18:16:47.972Z,88.04
2019-01-21T18:17:47.844Z,87.79
2019-01-21T18:18:47.625Z,87.58
2019-01-21T18:19:47.406Z,88.04
2019-01-21T19:13:37.773Z,89.92
2019-01-21T19:14:37.368Z,89.81
2019-01-21T19:25:05.580Z,89.96
2019-01-21T19:26:05.005Z,89.75
2019-01-21T19:28:00.811Z,90.49
2019-01-21T19:29:00.607Z,90.59
2019-01-21T19:32:58.609Z,90.59
2019-01-21T19:40:56.865Z,90.21
2019-01-21T19:43:39.171Z,89.89
2019-01-21T19:44:46.133Z,90.00
2019-01-21T19:50:17.849Z,91.59
2019-01-21T19:52:17.992Z,91.27
2019-01-21T19:53:16.962Z,91.94
2019-01-21T19:54:16.896Z,91.91
2019-01-21T19:55:16.916Z,92.05
2019-01-21T19:56:16.910Z,91.10
2019-01-21T19:57:16.876Z,91.69
2019-01-21T19:58:16.846Z,91.80
2019-01-21T19:59:16.834Z,91.80
2019-01-21T20:08:27.023Z,91.48
2019-01-21T20:09:28.914Z,91.69
2019-01-21T20:10:32.752Z,91.06
2019-01-21T20:11:27.702Z,92.01
2019-01-21T20:12:27.043Z,91.94
2019-01-21T20:13:27.135Z,92.05
2019-01-21T20:14:26.843Z,91.38
2019-01-21T20:15:27.968Z,91.84
2019-01-21T20:16:27.317Z,91.94
2019-01-21T20:17:27.775Z,91.84
2019-01-21T20:18:27.496Z,92.16
2019-01-21T20:19:27.409Z,91.31
2019-01-21T20:38:18.687Z,92.41
2019-01-21T20:39:18.721Z,92.20
2019-01-21T20:40:18.801Z,92.41
2019-01-21T20:41:18.588Z,91.88
2019-01-21T20:42:18.572Z,92.10
2019-01-21T20:43:18.571Z,92.24
2019-01-21T20:44:18.712Z,92.24
2019-01-21T20:45:23.330Z,92.03
2019-01-21T20:46:18.471Z,92.56
2019-01-21T20:47:18.349Z,92.45
2019-01-21T20:48:18.459Z,92.03
2019-01-21T20:49:18.306Z,92.03
2019-01-21T22:27:17.030Z,93.93
2019-01-21T23:28:56.941Z,94.76
2019-01-21T23:29:55.176Z,95.08
2019-01-21T23:30:57.540Z,94.55
2019-01-21T23:31:54.780Z,94.76
2019-01-21T23:32:54.787Z,95.72
2019-01-21T23:33:54.752Z,95.51
2019-01-21T23:34:54.696Z,95.19
2019-01-21T23:37:18.970Z,95.40
2019-01-21T23:38:17.127Z,95.51
2019-01-21T23:39:18.184Z,95.40
2019-01-21T23:40:17.671Z,95.51
2019-01-21T23:41:16.901Z,95.40
2019-01-21T23:42:16.689Z,95.44
2019-01-21T23:43:19.654Z,94.81
2019-01-21T23:44:16.727Z,95.23
2019-01-21T23:45:16.646Z,94.91
